sensor_id;sensor_type;location;lat;lon;timestamp;temperature;humidity
9762;DHT22;4920;49.594;11.022;2022-08-21T00:00:45;16.20;99.90
9762;DHT22;4920;49.594;11.022;2022-08-21T00:03:15;16.20;99.90
9762;DHT22;4920;49.594;11.022;2022-08-21T00:05:46;16.10;99.90
9762;DHT22;4920;49.594;11.022;2022-08-21T00:08:17;16.10;99.90
9762;DHT22;4920;49.594;11.022;2022-08-21T00:10:47;16.10;99.90
9762;DHT22;4920;49.594;11.022;2022-08-21T00:13:17;16.10;99.90
9762;DHT22;4920;49.594;11.022;2022-08-21T00:15:47;16.10;99.90
9762;DHT22;4920;49.594;11.022;2022-08-21T00:18:16;16.10;99.90
9762;DHT22;4920;49.594;11.022;2022-08-21T00:20:45;16.10;99.90
9762;DHT22;4920;49.594;11.022;2022-08-21T00:23:14;16.10;99.90
9762;DHT22;4920;49.594;11.022;2022-08-21T00:25:44;16.10;99.90
9762;DHT22;4920;49.594;11.022;2022-08-21T00:28:14;16.10;99.90
9762;DHT22;4920;49.594;11.022;2022-08-21T00:30:44;16.00;99.90
9762;DHT22;4920;49.594;11.022;2022-08-21T00:33:13;16.00;99.90
9762;DHT22;4920;49.594;11.022;2022-08-21T00:35:43;16.00;99.90
9762;DHT22;4920;49.594;11.022;2022-08-21T00:38:11;16.00;99.90
9762;DHT22;4920;49.594;11.022;2022-08-21T00:40:44;15.90;99.90
9762;DHT22;4920;49.594;11.022;2022-08-21T00:43:16;15.90;99.90
9762;DHT22;4920;49.594;11.022;2022-08-21T00:45:45;16.00;99.90
9762;DHT22;4920;49.594;11.022;2022-08-21T00:48:13;16.00;99.90
9762;DHT22;4920;49.594;11.022;2022-08-21T00:50:45;16.00;99.90
9762;DHT22;4920;49.594;11.022;2022-08-21T00:53:15;16.00;99.90
9762;DHT22;4920;49.594;11.022;2022-08-21T00:55:45;16.00;99.90
9762;DHT22;4920;49.594;11.022;2022-08-21T00:58:19;16.10;99.90
9762;DHT22;4920;49.594;11.022;2022-08-21T01:00:49;16.10;99.90
9762;DHT22;4920;49.594;11.022;2022-08-21T01:03:20;16.10;99.90
9762;DHT22;4920;49.594;11.022;2022-08-21T01:05:51;16.10;99.90
9762;DHT22;4920;49.594;11.022;2022-08-21T01:08:20;16.10;99.90
9762;DHT22;4920;49.594;11.022;2022-08-21T01:10:49;16.00;99.90
9762;DHT22;4920;49.594;11.022;2022-08-21T01:13:27;16.10;99.90
9762;DHT22;4920;49.594;11.022;2022-08-21T01:16:01;16.10;99.90
9762;DHT22;4920;49.594;11.022;2022-08-21T01:18:30;16.00;99.90
9762;DHT22;4920;49.594;11.022;2022-08-21T01:21:04;16.00;99.90
9762;DHT22;4920;49.594;11.022;2022-08-21T01:23:34;16.00;99.90
9762;DHT22;4920;49.594;11.022;2022-08-21T01:26:04;16.00;99.90
9762;DHT22;4920;49.594;11.022;2022-08-21T01:28:37;16.00;99.90
9762;DHT22;4920;49.594;11.022;2022-08-21T01:31:07;16.00;99.90
9762;DHT22;4920;49.594;11.022;2022-08-21T01:33:36;16.10;99.90
9762;DHT22;4920;49.594;11.022;2022-08-21T01:36:07;16.10;99.90
9762;DHT22;4920;49.594;11.022;2022-08-21T01:38:35;16.00;99.90
9762;DHT22;4920;49.594;11.022;2022-08-21T01:41:04;16.00;99.90
9762;DHT22;4920;49.594;11.022;2022-08-21T01:43:32;16.00;99.90
9762;DHT22;4920;49.594;11.022;2022-08-21T01:46:06;16.00;99.90
9762;DHT22;4920;49.594;11.022;2022-08-21T01:48:35;16.00;99.90
9762;DHT22;4920;49.594;11.022;2022-08-21T01:51:05;16.00;99.90
9762;DHT22;4920;49.594;11.022;2022-08-21T01:53:35;16.00;99.90
9762;DHT22;4920;49.594;11.022;2022-08-21T01:56:06;16.00;99.90
9762;DHT22;4920;49.594;11.022;2022-08-21T01:58:39;16.00;99.90
9762;DHT22;4920;49.594;11.022;2022-08-21T02:01:08;15.90;99.90
9762;DHT22;4920;49.594;11.022;2022-08-21T02:03:38;15.90;99.90
9762;DHT22;4920;49.594;11.022;2022-08-21T02:06:12;16.00;99.90
9762;DHT22;4920;49.594;11.022;2022-08-21T02:08:41;16.00;99.90
9762;DHT22;4920;49.594;11.022;2022-08-21T02:11:10;16.00;99.90
9762;DHT22;4920;49.594;11.022;2022-08-21T02:13:39;16.00;99.90
9762;DHT22;4920;49.594;11.022;2022-08-21T02:16:07;16.00;99.90
9762;DHT22;4920;49.594;11.022;2022-08-21T02:18:36;16.00;99.90
9762;DHT22;4920;49.594;11.022;2022-08-21T02:21:05;16.00;99.90
9762;DHT22;4920;49.594;11.022;2022-08-21T02:23:35;16.10;99.90
9762;DHT22;4920;49.594;11.022;2022-08-21T02:26:06;16.10;99.90
9762;DHT22;4920;49.594;11.022;2022-08-21T02:28:38;16.10;99.90
9762;DHT22;4920;49.594;11.022;2022-08-21T02:31:06;16.10;99.90
9762;DHT22;4920;49.594;11.022;2022-08-21T02:33:35;16.10;99.90
9762;DHT22;4920;49.594;11.022;2022-08-21T02:36:04;16.20;99.90
9762;DHT22;4920;49.594;11.022;2022-08-21T02:38:36;16.20;99.90
9762;DHT22;4920;49.594;11.022;2022-08-21T02:41:08;16.20;99.90
9762;DHT22;4920;49.594;11.022;2022-08-21T02:43:37;16.20;99.90
9762;DHT22;4920;49.594;11.022;2022-08-21T02:46:10;16.20;99.90
9762;DHT22;4920;49.594;11.022;2022-08-21T02:48:38;16.20;99.90
9762;DHT22;4920;49.594;11.022;2022-08-21T02:51:09;16.20;99.90
9762;DHT22;4920;49.594;11.022;2022-08-21T02:53:40;16.20;99.90
9762;DHT22;4920;49.594;11.022;2022-08-21T02:56:11;16.20;99.20
9762;DHT22;4920;49.594;11.022;2022-08-21T02:58:44;16.20;94.10
9762;DHT22;4920;49.594;11.022;2022-08-21T03:01:13;16.20;90.00
9762;DHT22;4920;49.594;11.022;2022-08-21T03:03:44;16.10;86.70
9762;DHT22;4920;49.594;11.022;2022-08-21T03:06:15;16.10;86.20
9762;DHT22;4920;49.594;11.022;2022-08-21T03:08:45;16.00;86.10
9762;DHT22;4920;49.594;11.022;2022-08-21T03:11:15;16.00;85.10
9762;DHT22;4920;49.594;11.022;2022-08-21T03:13:43;15.90;87.00
9762;DHT22;4920;49.594;11.022;2022-08-21T03:16:12;15.80;93.60
9762;DHT22;4920;49.594;11.022;2022-08-21T03:18:40;15.80;99.90
9762;DHT22;4920;49.594;11.022;2022-08-21T03:21:09;15.70;99.90
9762;DHT22;4920;49.594;11.022;2022-08-21T03:23:37;15.70;99.90
9762;DHT22;4920;49.594;11.022;2022-08-21T03:26:08;15.70;99.90
9762;DHT22;4920;49.594;11.022;2022-08-21T03:28:37;15.70;99.90
9762;DHT22;4920;49.594;11.022;2022-08-21T03:31:06;15.70;99.90
9762;DHT22;4920;49.594;11.022;2022-08-21T03:33:35;15.70;99.90
9762;DHT22;4920;49.594;11.022;2022-08-21T03:36:07;15.70;99.90
9762;DHT22;4920;49.594;11.022;2022-08-21T03:38:36;15.70;99.90
9762;DHT22;4920;49.594;11.022;2022-08-21T03:41:05;15.70;99.90
9762;DHT22;4920;49.594;11.022;2022-08-21T03:43:36;15.70;99.90
9762;DHT22;4920;49.594;11.022;2022-08-21T03:46:06;15.70;99.90
9762;DHT22;4920;49.594;11.022;2022-08-21T03:48:35;15.70;99.90
9762;DHT22;4920;49.594;11.022;2022-08-21T03:51:05;15.70;99.90
9762;DHT22;4920;49.594;11.022;2022-08-21T03:53:33;15.80;99.90
9762;DHT22;4920;49.594;11.022;2022-08-21T03:56:03;15.80;99.90
9762;DHT22;4920;49.594;11.022;2022-08-21T03:58:32;15.80;99.90
9762;DHT22;4920;49.594;11.022;2022-08-21T04:01:03;15.90;99.90
9762;DHT22;4920;49.594;11.022;2022-08-21T04:03:39;16.00;99.90
9762;DHT22;4920;49.594;11.022;2022-08-21T04:06:08;16.00;99.90
9762;DHT22;4920;49.594;11.022;2022-08-21T04:08:36;16.00;99.90
9762;DHT22;4920;49.594;11.022;2022-08-21T04:11:05;16.00;99.90
9762;DHT22;4920;49.594;11.022;2022-08-21T04:13:34;16.10;99.90
9762;DHT22;4920;49.594;11.022;2022-08-21T04:16:12;16.10;99.90
9762;DHT22;4920;49.594;11.022;2022-08-21T04:18:41;16.20;99.90
9762;DHT22;4920;49.594;11.022;2022-08-21T04:21:10;16.20;99.90
9762;DHT22;4920;49.594;11.022;2022-08-21T04:23:40;16.30;99.90
9762;DHT22;4920;49.594;11.022;2022-08-21T04:26:08;16.30;99.90
9762;DHT22;4920;49.594;11.022;2022-08-21T04:28:37;16.30;99.90
9762;DHT22;4920;49.594;11.022;2022-08-21T04:31:05;16.30;99.90
9762;DHT22;4920;49.594;11.022;2022-08-21T04:33:35;16.30;99.90
9762;DHT22;4920;49.594;11.022;2022-08-21T04:36:04;16.40;99.90
9762;DHT22;4920;49.594;11.022;2022-08-21T04:38:34;16.40;99.90
9762;DHT22;4920;49.594;11.022;2022-08-21T04:41:04;16.40;94.30
9762;DHT22;4920;49.594;11.022;2022-08-21T04:43:34;16.30;91.90
9762;DHT22;4920;49.594;11.022;2022-08-21T04:46:02;16.30;77.90
9762;DHT22;4920;49.594;11.022;2022-08-21T04:48:31;16.30;66.30
9762;DHT22;4920;49.594;11.022;2022-08-21T04:51:05;16.20;59.20
9762;DHT22;4920;49.594;11.022;2022-08-21T04:53:38;16.20;57.10
9762;DHT22;4920;49.594;11.022;2022-08-21T04:56:10;16.20;56.70
9762;DHT22;4920;49.594;11.022;2022-08-21T04:58:40;16.20;54.80
9762;DHT22;4920;49.594;11.022;2022-08-21T05:01:14;16.10;51.10
9762;DHT22;4920;49.594;11.022;2022-08-21T05:03:44;16.10;43.50
9762;DHT22;4920;49.594;11.022;2022-08-21T05:06:15;16.00;41.30
9762;DHT22;4920;49.594;11.022;2022-08-21T05:08:45;15.90;44.80
9762;DHT22;4920;49.594;11.022;2022-08-21T05:11:15;15.90;50.70
9762;DHT22;4920;49.594;11.022;2022-08-21T05:13:44;15.90;59.40
9762;DHT22;4920;49.594;11.022;2022-08-21T05:16:12;15.90;66.90
9762;DHT22;4920;49.594;11.022;2022-08-21T05:19:01;16.00;69.60
9762;DHT22;4920;49.594;11.022;2022-08-21T05:21:31;16.00;64.20
9762;DHT22;4920;49.594;11.022;2022-08-21T05:23:59;16.00;63.00
9762;DHT22;4920;49.594;11.022;2022-08-21T05:26:28;16.10;70.50
9762;DHT22;4920;49.594;11.022;2022-08-21T05:28:58;16.20;74.80
9762;DHT22;4920;49.594;11.022;2022-08-21T05:31:28;16.30;70.60
9762;DHT22;4920;49.594;11.022;2022-08-21T05:33:56;16.40;62.40
9762;DHT22;4920;49.594;11.022;2022-08-21T05:36:25;16.50;50.00
9762;DHT22;4920;49.594;11.022;2022-08-21T05:38:55;16.60;52.70
9762;DHT22;4920;49.594;11.022;2022-08-21T05:41:24;16.70;29.60
9762;DHT22;4920;49.594;11.022;2022-08-21T05:43:52;16.70;19.00
9762;DHT22;4920;49.594;11.022;2022-08-21T05:46:21;16.80;1.00
9762;DHT22;4920;49.594;11.022;2022-08-21T05:48:49;16.80;1.00
9762;DHT22;4920;49.594;11.022;2022-08-21T05:51:18;16.70;1.00
9762;DHT22;4920;49.594;11.022;2022-08-21T05:53:46;16.70;1.00
9762;DHT22;4920;49.594;11.022;2022-08-21T05:56:17;16.70;1.00
9762;DHT22;4920;49.594;11.022;2022-08-21T05:58:45;16.70;1.00
9762;DHT22;4920;49.594;11.022;2022-08-21T06:01:14;16.70;1.00
9762;DHT22;4920;49.594;11.022;2022-08-21T06:03:43;16.70;1.00
9762;DHT22;4920;49.594;11.022;2022-08-21T06:06:11;16.80;1.00
9762;DHT22;4920;49.594;11.022;2022-08-21T06:08:40;16.80;1.00
9762;DHT22;4920;49.594;11.022;2022-08-21T06:11:09;16.80;1.00
9762;DHT22;4920;49.594;11.022;2022-08-21T06:13:39;16.90;1.00
9762;DHT22;4920;49.594;11.022;2022-08-21T06:16:11;17.00;1.00
9762;DHT22;4920;49.594;11.022;2022-08-21T06:18:42;17.10;1.00
9762;DHT22;4920;49.594;11.022;2022-08-21T06:21:11;17.20;1.00
9762;DHT22;4920;49.594;11.022;2022-08-21T06:23:41;17.30;1.00
9762;DHT22;4920;49.594;11.022;2022-08-21T06:26:10;17.30;1.00
9762;DHT22;4920;49.594;11.022;2022-08-21T06:28:41;17.40;1.00
9762;DHT22;4920;49.594;11.022;2022-08-21T06:31:12;17.40;1.00
9762;DHT22;4920;49.594;11.022;2022-08-21T06:33:41;17.40;1.00
9762;DHT22;4920;49.594;11.022;2022-08-21T06:36:10;17.50;1.00
9762;DHT22;4920;49.594;11.022;2022-08-21T06:38:39;17.60;1.00
9762;DHT22;4920;49.594;11.022;2022-08-21T06:41:18;17.80;1.00
9762;DHT22;4920;49.594;11.022;2022-08-21T06:43:55;18.00;1.00
9762;DHT22;4920;49.594;11.022;2022-08-21T06:46:26;18.10;1.00
9762;DHT22;4920;49.594;11.022;2022-08-21T06:48:56;18.40;1.00
9762;DHT22;4920;49.594;11.022;2022-08-21T06:51:25;18.70;1.00
9762;DHT22;4920;49.594;11.022;2022-08-21T06:53:54;19.00;99.90
9762;DHT22;4920;49.594;11.022;2022-08-21T06:56:25;19.10;1.00
9762;DHT22;4920;49.594;11.022;2022-08-21T06:58:55;19.10;1.00
9762;DHT22;4920;49.594;11.022;2022-08-21T07:01:25;19.00;1.00
9762;DHT22;4920;49.594;11.022;2022-08-21T07:03:54;18.90;1.00
9762;DHT22;4920;49.594;11.022;2022-08-21T07:06:23;19.00;1.00
9762;DHT22;4920;49.594;11.022;2022-08-21T07:08:51;19.00;1.00
9762;DHT22;4920;49.594;11.022;2022-08-21T07:11:25;19.10;1.00
9762;DHT22;4920;49.594;11.022;2022-08-21T07:13:55;19.20;99.90
9762;DHT22;4920;49.594;11.022;2022-08-21T07:16:25;19.30;13.70
9762;DHT22;4920;49.594;11.022;2022-08-21T07:18:53;19.40;1.00
9762;DHT22;4920;49.594;11.022;2022-08-21T07:21:22;19.40;99.90
9762;DHT22;4920;49.594;11.022;2022-08-21T07:23:52;19.50;99.90
9762;DHT22;4920;49.594;11.022;2022-08-21T07:26:22;19.40;99.90
9762;DHT22;4920;49.594;11.022;2022-08-21T07:28:51;19.50;99.90
9762;DHT22;4920;49.594;11.022;2022-08-21T07:31:23;19.60;1.00
9762;DHT22;4920;49.594;11.022;2022-08-21T07:33:52;19.80;99.90
9762;DHT22;4920;49.594;11.022;2022-08-21T07:36:21;20.00;1.00
9762;DHT22;4920;49.594;11.022;2022-08-21T07:38:49;20.10;99.90
9762;DHT22;4920;49.594;11.022;2022-08-21T07:41:20;20.30;1.00
9762;DHT22;4920;49.594;11.022;2022-08-21T07:43:49;20.50;1.00
9762;DHT22;4920;49.594;11.022;2022-08-21T07:46:20;20.70;99.90
9762;DHT22;4920;49.594;11.022;2022-08-21T07:48:49;21.00;38.90
9762;DHT22;4920;49.594;11.022;2022-08-21T07:51:23;21.10;99.90
9762;DHT22;4920;49.594;11.022;2022-08-21T07:53:53;21.20;99.90
9762;DHT22;4920;49.594;11.022;2022-08-21T07:56:22;21.30;99.90
9762;DHT22;4920;49.594;11.022;2022-08-21T07:58:51;21.40;1.00
9762;DHT22;4920;49.594;11.022;2022-08-21T08:01:21;21.30;1.00
9762;DHT22;4920;49.594;11.022;2022-08-21T08:03:50;21.20;1.00
9762;DHT22;4920;49.594;11.022;2022-08-21T08:06:19;21.10;99.90
9762;DHT22;4920;49.594;11.022;2022-08-21T08:08:47;21.20;81.60
9762;DHT22;4920;49.594;11.022;2022-08-21T08:11:16;21.40;1.00
9762;DHT22;4920;49.594;11.022;2022-08-21T08:13:48;21.60;1.00
9762;DHT22;4920;49.594;11.022;2022-08-21T08:16:17;21.70;99.90
9762;DHT22;4920;49.594;11.022;2022-08-21T08:18:47;21.90;25.00
9762;DHT22;4920;49.594;11.022;2022-08-21T08:21:16;22.00;1.00
9762;DHT22;4920;49.594;11.022;2022-08-21T08:23:45;22.20;1.00
9762;DHT22;4920;49.594;11.022;2022-08-21T08:26:14;22.40;1.00
9762;DHT22;4920;49.594;11.022;2022-08-21T08:28:43;22.40;99.90
9762;DHT22;4920;49.594;11.022;2022-08-21T08:31:13;22.50;99.90
9762;DHT22;4920;49.594;11.022;2022-08-21T08:33:42;22.50;64.80
9762;DHT22;4920;49.594;11.022;2022-08-21T08:36:16;22.60;1.00
9762;DHT22;4920;49.594;11.022;2022-08-21T08:38:47;22.70;1.00
9762;DHT22;4920;49.594;11.022;2022-08-21T08:41:17;22.60;1.00
9762;DHT22;4920;49.594;11.022;2022-08-21T08:43:51;22.30;1.00
9762;DHT22;4920;49.594;11.022;2022-08-21T08:46:31;22.10;24.20
9762;DHT22;4920;49.594;11.022;2022-08-21T08:49:05;21.80;99.90
9762;DHT22;4920;49.594;11.022;2022-08-21T08:51:40;21.60;99.90
9762;DHT22;4920;49.594;11.022;2022-08-21T08:54:13;21.30;1.00
9762;DHT22;4920;49.594;11.022;2022-08-21T08:56:43;21.20;99.90
9762;DHT22;4920;49.594;11.022;2022-08-21T08:59:15;21.00;1.00
9762;DHT22;4920;49.594;11.022;2022-08-21T09:01:46;21.00;1.00
9762;DHT22;4920;49.594;11.022;2022-08-21T09:04:20;21.00;1.00
9762;DHT22;4920;49.594;11.022;2022-08-21T09:07:09;20.90;35.80
9762;DHT22;4920;49.594;11.022;2022-08-21T09:09:53;20.90;99.90
9762;DHT22;4920;49.594;11.022;2022-08-21T09:12:32;20.90;26.00
9762;DHT22;4920;49.594;11.022;2022-08-21T09:15:09;21.00;1.00
9762;DHT22;4920;49.594;11.022;2022-08-21T09:17:55;21.10;1.00
9762;DHT22;4920;49.594;11.022;2022-08-21T09:20:37;21.20;1.00
9762;DHT22;4920;49.594;11.022;2022-08-21T09:23:20;21.40;1.00
9762;DHT22;4920;49.594;11.022;2022-08-21T09:25:55;21.70;99.90
9762;DHT22;4920;49.594;11.022;2022-08-21T09:28:26;22.20;1.00
9762;DHT22;4920;49.594;11.022;2022-08-21T09:30:55;22.50;99.90
9762;DHT22;4920;49.594;11.022;2022-08-21T09:33:29;22.80;71.10
9762;DHT22;4920;49.594;11.022;2022-08-21T09:35:58;23.10;1.00
9762;DHT22;4920;49.594;11.022;2022-08-21T09:38:31;23.10;1.00
9762;DHT22;4920;49.594;11.022;2022-08-21T09:41:04;23.30;99.90
9762;DHT22;4920;49.594;11.022;2022-08-21T09:43:33;23.50;99.90
9762;DHT22;4920;49.594;11.022;2022-08-21T09:46:05;23.80;99.90
9762;DHT22;4920;49.594;11.022;2022-08-21T09:48:44;24.10;1.00
9762;DHT22;4920;49.594;11.022;2022-08-21T09:51:15;24.40;1.00
9762;DHT22;4920;49.594;11.022;2022-08-21T09:53:48;24.80;1.00
9762;DHT22;4920;49.594;11.022;2022-08-21T09:56:26;25.10;1.00
9762;DHT22;4920;49.594;11.022;2022-08-21T09:59:26;25.50;1.00
9762;DHT22;4920;49.594;11.022;2022-08-21T10:02:26;25.80;99.90
9762;DHT22;4920;49.594;11.022;2022-08-21T10:04:58;25.90;99.90
9762;DHT22;4920;49.594;11.022;2022-08-21T10:07:28;26.00;99.90
9762;DHT22;4920;49.594;11.022;2022-08-21T10:10:05;26.20;99.90
9762;DHT22;4920;49.594;11.022;2022-08-21T10:12:42;26.50;99.90
9762;DHT22;4920;49.594;11.022;2022-08-21T10:15:19;26.60;99.90
9762;DHT22;4920;49.594;11.022;2022-08-21T10:17:55;26.70;99.90
9762;DHT22;4920;49.594;11.022;2022-08-21T10:20:30;26.80;99.90
9762;DHT22;4920;49.594;11.022;2022-08-21T10:23:12;26.70;99.90
9762;DHT22;4920;49.594;11.022;2022-08-21T10:25:52;26.50;99.90
9762;DHT22;4920;49.594;11.022;2022-08-21T10:28:47;26.40;99.90
9762;DHT22;4920;49.594;11.022;2022-08-21T10:31:28;26.40;99.90
9762;DHT22;4920;49.594;11.022;2022-08-21T10:34:11;26.20;99.90
9762;DHT22;4920;49.594;11.022;2022-08-21T10:36:58;25.70;99.90
9762;DHT22;4920;49.594;11.022;2022-08-21T10:39:42;25.00;99.90
9762;DHT22;4920;49.594;11.022;2022-08-21T10:42:29;24.60;99.90
9762;DHT22;4920;49.594;11.022;2022-08-21T10:45:11;24.20;99.90
9762;DHT22;4920;49.594;11.022;2022-08-21T10:47:47;24.00;99.90
9762;DHT22;4920;49.594;11.022;2022-08-21T10:50:30;23.90;99.90
9762;DHT22;4920;49.594;11.022;2022-08-21T10:53:32;23.80;99.90
9762;DHT22;4920;49.594;11.022;2022-08-21T10:56:13;23.80;99.90
9762;DHT22;4920;49.594;11.022;2022-08-21T10:58:51;23.70;99.90
9762;DHT22;4920;49.594;11.022;2022-08-21T11:01:28;23.70;99.90
9762;DHT22;4920;49.594;11.022;2022-08-21T11:04:09;23.80;99.90
9762;DHT22;4920;49.594;11.022;2022-08-21T11:06:43;23.90;99.90
9762;DHT22;4920;49.594;11.022;2022-08-21T11:09:16;24.10;99.90
9762;DHT22;4920;49.594;11.022;2022-08-21T11:11:51;24.20;99.90
9762;DHT22;4920;49.594;11.022;2022-08-21T11:14:46;24.40;99.90
9762;DHT22;4920;49.594;11.022;2022-08-21T11:17:22;24.50;99.90
9762;DHT22;4920;49.594;11.022;2022-08-21T11:19:57;24.60;99.90
9762;DHT22;4920;49.594;11.022;2022-08-21T11:22:33;24.70;99.90
9762;DHT22;4920;49.594;11.022;2022-08-21T11:25:07;24.80;99.90
9762;DHT22;4920;49.594;11.022;2022-08-21T11:27:41;25.00;99.90
9762;DHT22;4920;49.594;11.022;2022-08-21T11:30:12;25.00;99.90
9762;DHT22;4920;49.594;11.022;2022-08-21T11:33:08;25.20;99.90
9762;DHT22;4920;49.594;11.022;2022-08-21T11:35:46;25.70;99.90
9762;DHT22;4920;49.594;11.022;2022-08-21T11:38:25;26.00;99.90
9762;DHT22;4920;49.594;11.022;2022-08-21T11:41:13;26.20;99.90
9762;DHT22;4920;49.594;11.022;2022-08-21T11:43:47;26.20;99.90
9762;DHT22;4920;49.594;11.022;2022-08-21T11:46:29;26.20;99.90
9762;DHT22;4920;49.594;11.022;2022-08-21T11:49:20;26.20;99.90
9762;DHT22;4920;49.594;11.022;2022-08-21T11:51:58;26.30;99.90
9762;DHT22;4920;49.594;11.022;2022-08-21T11:54:30;26.10;99.90
9762;DHT22;4920;49.594;11.022;2022-08-21T11:57:05;25.60;99.90
9762;DHT22;4920;49.594;11.022;2022-08-21T11:59:39;25.30;99.90
9762;DHT22;4920;49.594;11.022;2022-08-21T12:02:14;25.00;99.90
9762;DHT22;4920;49.594;11.022;2022-08-21T12:04:46;24.70;99.90
9762;DHT22;4920;49.594;11.022;2022-08-21T12:07:27;24.60;99.90
9762;DHT22;4920;49.594;11.022;2022-08-21T12:09:58;24.60;99.90
9762;DHT22;4920;49.594;11.022;2022-08-21T12:12:28;24.60;99.90
9762;DHT22;4920;49.594;11.022;2022-08-21T12:15:22;24.70;99.90
9762;DHT22;4920;49.594;11.022;2022-08-21T12:17:55;24.90;99.90
9762;DHT22;4920;49.594;11.022;2022-08-21T12:20:40;25.10;99.90
9762;DHT22;4920;49.594;11.022;2022-08-21T12:23:24;25.30;99.90
9762;DHT22;4920;49.594;11.022;2022-08-21T12:26:09;25.40;99.90
9762;DHT22;4920;49.594;11.022;2022-08-21T12:28:39;25.50;99.90
9762;DHT22;4920;49.594;11.022;2022-08-21T12:31:23;25.60;99.90
9762;DHT22;4920;49.594;11.022;2022-08-21T12:33:57;25.80;99.90
9762;DHT22;4920;49.594;11.022;2022-08-21T12:36:38;25.90;99.90
9762;DHT22;4920;49.594;11.022;2022-08-21T12:39:13;26.00;99.90
9762;DHT22;4920;49.594;11.022;2022-08-21T12:41:48;26.10;95.90
9762;DHT22;4920;49.594;11.022;2022-08-21T12:44:26;26.20;86.40
9762;DHT22;4920;49.594;11.022;2022-08-21T12:46:59;26.20;81.30
9762;DHT22;4920;49.594;11.022;2022-08-21T12:49:33;26.30;85.00
9762;DHT22;4920;49.594;11.022;2022-08-21T12:52:09;26.40;84.20
9762;DHT22;4920;49.594;11.022;2022-08-21T12:54:41;26.50;82.10
9762;DHT22;4920;49.594;11.022;2022-08-21T12:57:18;26.60;81.40
9762;DHT22;4920;49.594;11.022;2022-08-21T12:59:52;26.70;76.60
9762;DHT22;4920;49.594;11.022;2022-08-21T13:02:24;26.90;73.80
9762;DHT22;4920;49.594;11.022;2022-08-21T13:04:56;27.00;70.10
9762;DHT22;4920;49.594;11.022;2022-08-21T13:07:28;27.00;67.40
9762;DHT22;4920;49.594;11.022;2022-08-21T13:10:02;27.10;68.50
9762;DHT22;4920;49.594;11.022;2022-08-21T13:12:31;27.10;69.30
9762;DHT22;4920;49.594;11.022;2022-08-21T13:15:04;27.40;67.00
9762;DHT22;4920;49.594;11.022;2022-08-21T13:17:38;27.40;59.30
9762;DHT22;4920;49.594;11.022;2022-08-21T13:20:18;27.50;61.20
9762;DHT22;4920;49.594;11.022;2022-08-21T13:22:47;27.60;59.30
9762;DHT22;4920;49.594;11.022;2022-08-21T13:25:18;27.60;54.30
9762;DHT22;4920;49.594;11.022;2022-08-21T13:27:59;27.70;54.60
9762;DHT22;4920;49.594;11.022;2022-08-21T13:30:28;27.50;49.90
9762;DHT22;4920;49.594;11.022;2022-08-21T13:33:04;27.30;47.90
9762;DHT22;4920;49.594;11.022;2022-08-21T13:36:03;27.00;49.40
9762;DHT22;4920;49.594;11.022;2022-08-21T13:38:34;26.90;50.80
9762;DHT22;4920;49.594;11.022;2022-08-21T13:41:05;26.80;52.50
9762;DHT22;4920;49.594;11.022;2022-08-21T13:43:37;26.60;50.50
9762;DHT22;4920;49.594;11.022;2022-08-21T13:46:09;26.50;64.20
9762;DHT22;4920;49.594;11.022;2022-08-21T13:48:38;26.60;46.80
9762;DHT22;4920;49.594;11.022;2022-08-21T13:51:09;26.70;40.70
9762;DHT22;4920;49.594;11.022;2022-08-21T13:53:46;26.70;40.30
9762;DHT22;4920;49.594;11.022;2022-08-21T13:56:23;26.90;37.70
9762;DHT22;4920;49.594;11.022;2022-08-21T13:58:53;26.90;32.90
9762;DHT22;4920;49.594;11.022;2022-08-21T14:01:26;27.00;33.30
9762;DHT22;4920;49.594;11.022;2022-08-21T14:04:00;27.10;34.10
9762;DHT22;4920;49.594;11.022;2022-08-21T14:06:34;27.30;32.70
9762;DHT22;4920;49.594;11.022;2022-08-21T14:09:11;27.40;30.60
9762;DHT22;4920;49.594;11.022;2022-08-21T14:11:40;27.50;29.20
9762;DHT22;4920;49.594;11.022;2022-08-21T14:14:19;27.50;26.50
9762;DHT22;4920;49.594;11.022;2022-08-21T14:16:54;27.50;28.80
9762;DHT22;4920;49.594;11.022;2022-08-21T14:19:25;27.60;26.50
9762;DHT22;4920;49.594;11.022;2022-08-21T14:21:57;27.60;25.20
9762;DHT22;4920;49.594;11.022;2022-08-21T14:24:27;27.60;19.50
9762;DHT22;4920;49.594;11.022;2022-08-21T14:27:01;27.50;17.70
9762;DHT22;4920;49.594;11.022;2022-08-21T14:29:34;27.40;17.30
9762;DHT22;4920;49.594;11.022;2022-08-21T14:32:10;27.20;18.00
9762;DHT22;4920;49.594;11.022;2022-08-21T14:34:51;27.20;16.80
9762;DHT22;4920;49.594;11.022;2022-08-21T14:37:22;27.20;15.60
9762;DHT22;4920;49.594;11.022;2022-08-21T14:39:52;27.10;15.70
9762;DHT22;4920;49.594;11.022;2022-08-21T14:42:21;27.10;15.50
9762;DHT22;4920;49.594;11.022;2022-08-21T14:44:50;27.20;16.30
9762;DHT22;4920;49.594;11.022;2022-08-21T14:47:18;27.30;15.10
9762;DHT22;4920;49.594;11.022;2022-08-21T14:49:47;27.30;13.60
9762;DHT22;4920;49.594;11.022;2022-08-21T14:52:15;27.30;13.40
9762;DHT22;4920;49.594;11.022;2022-08-21T14:54:46;27.30;11.90
9762;DHT22;4920;49.594;11.022;2022-08-21T14:57:14;27.40;9.70
9762;DHT22;4920;49.594;11.022;2022-08-21T14:59:43;27.40;10.60
9762;DHT22;4920;49.594;11.022;2022-08-21T15:02:11;27.40;8.60
9762;DHT22;4920;49.594;11.022;2022-08-21T15:04:40;27.40;8.90
9762;DHT22;4920;49.594;11.022;2022-08-21T15:07:09;27.40;9.50
9762;DHT22;4920;49.594;11.022;2022-08-21T15:09:38;27.40;8.40
9762;DHT22;4920;49.594;11.022;2022-08-21T15:12:08;27.50;7.80
9762;DHT22;4920;49.594;11.022;2022-08-21T15:14:39;27.40;6.90
9762;DHT22;4920;49.594;11.022;2022-08-21T15:17:09;27.30;7.00
9762;DHT22;4920;49.594;11.022;2022-08-21T15:19:39;27.20;21.00
9762;DHT22;4920;49.594;11.022;2022-08-21T15:22:08;27.20;4.70
9762;DHT22;4920;49.594;11.022;2022-08-21T15:24:45;27.10;3.80
9762;DHT22;4920;49.594;11.022;2022-08-21T15:27:16;27.00;3.20
9762;DHT22;4920;49.594;11.022;2022-08-21T15:29:46;27.00;3.90
9762;DHT22;4920;49.594;11.022;2022-08-21T15:32:17;26.90;1.80
9762;DHT22;4920;49.594;11.022;2022-08-21T15:34:46;26.90;3.50
9762;DHT22;4920;49.594;11.022;2022-08-21T15:37:15;27.00;2.90
9762;DHT22;4920;49.594;11.022;2022-08-21T15:39:43;27.00;1.30
9762;DHT22;4920;49.594;11.022;2022-08-21T15:42:23;27.00;1.80
9762;DHT22;4920;49.594;11.022;2022-08-21T15:44:54;27.00;2.70
9762;DHT22;4920;49.594;11.022;2022-08-21T15:47:28;27.10;2.50
9762;DHT22;4920;49.594;11.022;2022-08-21T15:49:57;27.10;1.00
9762;DHT22;4920;49.594;11.022;2022-08-21T15:52:25;27.00;14.40
9762;DHT22;4920;49.594;11.022;2022-08-21T15:54:54;26.90;1.00
9762;DHT22;4920;49.594;11.022;2022-08-21T15:57:24;26.90;1.00
9762;DHT22;4920;49.594;11.022;2022-08-21T15:59:56;26.80;1.00
9762;DHT22;4920;49.594;11.022;2022-08-21T16:02:27;26.80;1.00
9762;DHT22;4920;49.594;11.022;2022-08-21T16:04:56;26.80;1.00
9762;DHT22;4920;49.594;11.022;2022-08-21T16:07:25;26.80;1.00
9762;DHT22;4920;49.594;11.022;2022-08-21T16:09:53;26.80;1.00
9762;DHT22;4920;49.594;11.022;2022-08-21T16:12:26;26.80;1.00
9762;DHT22;4920;49.594;11.022;2022-08-21T16:14:55;26.80;1.00
9762;DHT22;4920;49.594;11.022;2022-08-21T16:17:27;26.90;1.00
9762;DHT22;4920;49.594;11.022;2022-08-21T16:19:56;26.90;1.00
9762;DHT22;4920;49.594;11.022;2022-08-21T16:22:25;26.90;1.00